BIVO/VPN METAR and TAF weather

Enter ICAO airport designator
Station Type Date Time Source
BIVO METAR 2024/07/24 12:00 UTC NOAA

BIVO 241200Z 20021KT 9999 SCT050 BKN060 18/07 Q1001


Station Type Date Time Source
BIVO Decoded METAR 2024/07/24 12:00 UTC NOAA

Skjaldthingsstadir, Iceland (BIVO) 65-42N 014-49W 48M
Jul 24, 2024 - 08:00 AM EDT / 2024.07.24 1200 UTC
Wind: from the SSW (200 degrees) at 24 MPH (21 KT):0
Visibility: greater than 7 mile(s):0
Sky conditions: mostly cloudy
Temperature: 64 F (18 C)
Dew Point: 44 F (7 C)
Relative Humidity: 48%
Pressure (altimeter): 29.56 in. Hg (1001 hPa)
ob: BIVO 241200Z 20021KT 9999 SCT050 BKN060 18/07 Q1001
cycle: 12

Station Type Date Time Source
BIVO TAF UTC NOAA

Error!

Example: see airport list